sensor_id;sensor_type;location;lat;lon;timestamp;temperature;humidity
23411;DHT22;11878;51.774;7.220;2022-12-18T00:02:28;-5.00;99.90
23411;DHT22;11878;51.774;7.220;2022-12-18T00:05:29;-6.20;99.90
23411;DHT22;11878;51.774;7.220;2022-12-18T00:08:31;-6.30;99.90
23411;DHT22;11878;51.774;7.220;2022-12-18T00:11:33;-6.20;99.90
23411;DHT22;11878;51.774;7.220;2022-12-18T00:14:35;-6.30;99.90
23411;DHT22;11878;51.774;7.220;2022-12-18T00:17:36;-6.30;99.90
23411;DHT22;11878;51.774;7.220;2022-12-18T00:20:39;-6.30;99.90
23411;DHT22;11878;51.774;7.220;2022-12-18T00:23:42;-6.30;99.90
23411;DHT22;11878;51.774;7.220;2022-12-18T00:26:45;-6.30;99.90
23411;DHT22;11878;51.774;7.220;2022-12-18T00:29:48;-6.40;99.90
23411;DHT22;11878;51.774;7.220;2022-12-18T00:32:50;-6.40;99.90
23411;DHT22;11878;51.774;7.220;2022-12-18T00:35:52;-6.40;99.90
23411;DHT22;11878;51.774;7.220;2022-12-18T00:38:55;-6.10;99.90
23411;DHT22;11878;51.774;7.220;2022-12-18T00:41:57;-6.50;99.90
23411;DHT22;11878;51.774;7.220;2022-12-18T00:45:17;-6.50;99.90
23411;DHT22;11878;51.774;7.220;2022-12-18T00:48:20;-6.50;99.90
23411;DHT22;11878;51.774;7.220;2022-12-18T00:51:23;-6.60;99.90
23411;DHT22;11878;51.774;7.220;2022-12-18T00:54:25;-6.70;99.90
23411;DHT22;11878;51.774;7.220;2022-12-18T00:57:26;-6.70;99.90
23411;DHT22;11878;51.774;7.220;2022-12-18T01:00:28;-6.80;99.90
23411;DHT22;11878;51.774;7.220;2022-12-18T01:03:30;-6.90;99.90
23411;DHT22;11878;51.774;7.220;2022-12-18T01:06:32;-7.00;99.90
23411;DHT22;11878;51.774;7.220;2022-12-18T01:09:33;-6.80;99.90
23411;DHT22;11878;51.774;7.220;2022-12-18T01:12:36;-6.70;99.90
23411;DHT22;11878;51.774;7.220;2022-12-18T01:15:37;-6.70;99.90
23411;DHT22;11878;51.774;7.220;2022-12-18T01:18:39;-6.80;99.90
23411;DHT22;11878;51.774;7.220;2022-12-18T01:21:41;-6.90;99.90
23411;DHT22;11878;51.774;7.220;2022-12-18T01:24:43;-6.90;99.90
23411;DHT22;11878;51.774;7.220;2022-12-18T01:27:44;-7.00;99.90
23411;DHT22;11878;51.774;7.220;2022-12-18T01:30:46;-7.00;99.90
23411;DHT22;11878;51.774;7.220;2022-12-18T01:33:49;-7.00;99.90
23411;DHT22;11878;51.774;7.220;2022-12-18T01:36:51;-6.80;99.90
23411;DHT22;11878;51.774;7.220;2022-12-18T01:39:53;-7.10;99.90
23411;DHT22;11878;51.774;7.220;2022-12-18T01:42:56;-7.10;99.90
23411;DHT22;11878;51.774;7.220;2022-12-18T01:45:59;-7.00;99.90
23411;DHT22;11878;51.774;7.220;2022-12-18T01:49:01;-7.10;99.90
23411;DHT22;11878;51.774;7.220;2022-12-18T01:52:03;-7.00;99.90
23411;DHT22;11878;51.774;7.220;2022-12-18T01:55:06;-7.10;99.90
23411;DHT22;11878;51.774;7.220;2022-12-18T01:58:08;-7.10;99.90
23411;DHT22;11878;51.774;7.220;2022-12-18T02:01:10;-7.10;99.90
23411;DHT22;11878;51.774;7.220;2022-12-18T02:07:37;-7.20;99.90
23411;DHT22;11878;51.774;7.220;2022-12-18T02:13:59;-7.10;99.90
23411;DHT22;11878;51.774;7.220;2022-12-18T02:17:05;-7.20;99.90
23411;DHT22;11878;51.774;7.220;2022-12-18T02:20:24;-7.30;99.90
23411;DHT22;11878;51.774;7.220;2022-12-18T02:24:03;-7.30;99.90
23411;DHT22;11878;51.774;7.220;2022-12-18T02:27:09;-7.30;99.90
23411;DHT22;11878;51.774;7.220;2022-12-18T02:30:12;-7.30;99.90
23411;DHT22;11878;51.774;7.220;2022-12-18T02:33:15;-7.30;99.90
23411;DHT22;11878;51.774;7.220;2022-12-18T02:36:18;-7.30;99.90
23411;DHT22;11878;51.774;7.220;2022-12-18T02:39:24;-7.30;99.90
23411;DHT22;11878;51.774;7.220;2022-12-18T02:42:37;-7.40;99.90
23411;DHT22;11878;51.774;7.220;2022-12-18T02:45:48;-7.50;99.90
23411;DHT22;11878;51.774;7.220;2022-12-18T02:48:54;-7.40;99.90
23411;DHT22;11878;51.774;7.220;2022-12-18T02:59:06;-7.30;99.90
23411;DHT22;11878;51.774;7.220;2022-12-18T03:02:19;-7.40;99.90
23411;DHT22;11878;51.774;7.220;2022-12-18T03:05:27;-7.40;99.90
23411;DHT22;11878;51.774;7.220;2022-12-18T03:08:37;-7.50;99.90
23411;DHT22;11878;51.774;7.220;2022-12-18T03:11:42;-7.50;99.90
23411;DHT22;11878;51.774;7.220;2022-12-18T03:18:27;-7.40;99.90
23411;DHT22;11878;51.774;7.220;2022-12-18T03:21:39;-7.40;99.90
23411;DHT22;11878;51.774;7.220;2022-12-18T03:24:42;-7.50;99.90
23411;DHT22;11878;51.774;7.220;2022-12-18T03:27:49;-7.50;99.90
23411;DHT22;11878;51.774;7.220;2022-12-18T03:30:57;-7.60;99.90
23411;DHT22;11878;51.774;7.220;2022-12-18T03:34:05;-7.60;99.90
23411;DHT22;11878;51.774;7.220;2022-12-18T03:37:16;-7.50;99.90
23411;DHT22;11878;51.774;7.220;2022-12-18T03:40:21;-7.50;99.90
23411;DHT22;11878;51.774;7.220;2022-12-18T03:43:36;-7.60;99.90
23411;DHT22;11878;51.774;7.220;2022-12-18T03:50:19;-7.70;99.90
23411;DHT22;11878;51.774;7.220;2022-12-18T03:57:03;-8.00;99.90
23411;DHT22;11878;51.774;7.220;2022-12-18T04:00:10;-8.00;99.90
23411;DHT22;11878;51.774;7.220;2022-12-18T04:03:28;-7.80;99.90
23411;DHT22;11878;51.774;7.220;2022-12-18T04:06:32;-7.80;99.90
23411;DHT22;11878;51.774;7.220;2022-12-18T04:09:35;-7.80;99.90
23411;DHT22;11878;51.774;7.220;2022-12-18T04:12:38;-7.90;99.90
23411;DHT22;11878;51.774;7.220;2022-12-18T04:15:43;-7.80;99.90
23411;DHT22;11878;51.774;7.220;2022-12-18T04:18:53;-7.70;99.90
23411;DHT22;11878;51.774;7.220;2022-12-18T04:21:57;-7.60;99.90
23411;DHT22;11878;51.774;7.220;2022-12-18T04:25:00;-7.70;99.90
23411;DHT22;11878;51.774;7.220;2022-12-18T04:28:09;-7.50;99.90
23411;DHT22;11878;51.774;7.220;2022-12-18T04:31:13;-7.70;99.90
23411;DHT22;11878;51.774;7.220;2022-12-18T04:34:15;-7.90;99.90
23411;DHT22;11878;51.774;7.220;2022-12-18T04:37:23;-7.80;99.90
23411;DHT22;11878;51.774;7.220;2022-12-18T04:40:25;-7.80;99.90
23411;DHT22;11878;51.774;7.220;2022-12-18T04:43:27;-7.80;99.90
23411;DHT22;11878;51.774;7.220;2022-12-18T04:46:28;-8.00;99.90
23411;DHT22;11878;51.774;7.220;2022-12-18T04:49:30;-7.90;99.90
23411;DHT22;11878;51.774;7.220;2022-12-18T04:52:32;-7.90;99.90
23411;DHT22;11878;51.774;7.220;2022-12-18T04:55:34;-7.80;99.90
23411;DHT22;11878;51.774;7.220;2022-12-18T04:58:36;-7.90;99.90
23411;DHT22;11878;51.774;7.220;2022-12-18T05:01:38;-7.70;99.90
23411;DHT22;11878;51.774;7.220;2022-12-18T05:04:40;-7.80;99.90
23411;DHT22;11878;51.774;7.220;2022-12-18T05:07:42;-7.80;99.90
23411;DHT22;11878;51.774;7.220;2022-12-18T05:10:43;-8.00;99.90
23411;DHT22;11878;51.774;7.220;2022-12-18T05:13:46;-7.90;99.90
23411;DHT22;11878;51.774;7.220;2022-12-18T05:16:48;-7.90;99.90
23411;DHT22;11878;51.774;7.220;2022-12-18T05:19:49;-7.90;99.90
23411;DHT22;11878;51.774;7.220;2022-12-18T05:22:52;-7.90;99.90
23411;DHT22;11878;51.774;7.220;2022-12-18T05:25:56;-7.90;99.90
23411;DHT22;11878;51.774;7.220;2022-12-18T05:28:58;-7.80;99.90
23411;DHT22;11878;51.774;7.220;2022-12-18T05:32:00;-7.80;99.90
23411;DHT22;11878;51.774;7.220;2022-12-18T05:35:02;-7.90;99.90
23411;DHT22;11878;51.774;7.220;2022-12-18T05:38:04;-8.10;99.90
23411;DHT22;11878;51.774;7.220;2022-12-18T05:41:07;-8.20;99.90
23411;DHT22;11878;51.774;7.220;2022-12-18T05:44:09;-8.20;99.90
23411;DHT22;11878;51.774;7.220;2022-12-18T05:47:11;-8.00;99.90
23411;DHT22;11878;51.774;7.220;2022-12-18T05:50:13;-8.00;99.90
23411;DHT22;11878;51.774;7.220;2022-12-18T05:53:16;-7.90;99.90
23411;DHT22;11878;51.774;7.220;2022-12-18T05:56:21;-7.90;99.90
23411;DHT22;11878;51.774;7.220;2022-12-18T05:59:23;-8.00;99.90
23411;DHT22;11878;51.774;7.220;2022-12-18T06:02:25;-8.10;99.90
23411;DHT22;11878;51.774;7.220;2022-12-18T06:05:27;-8.10;99.90
23411;DHT22;11878;51.774;7.220;2022-12-18T06:08:29;-8.00;99.90
23411;DHT22;11878;51.774;7.220;2022-12-18T06:11:31;-8.00;99.90
23411;DHT22;11878;51.774;7.220;2022-12-18T06:14:32;-8.10;99.90
23411;DHT22;11878;51.774;7.220;2022-12-18T06:17:34;-8.10;99.90
23411;DHT22;11878;51.774;7.220;2022-12-18T06:20:36;-8.00;99.90
23411;DHT22;11878;51.774;7.220;2022-12-18T06:23:40;-8.00;99.90
23411;DHT22;11878;51.774;7.220;2022-12-18T06:26:43;-7.90;99.90
23411;DHT22;11878;51.774;7.220;2022-12-18T06:29:45;-7.80;99.90
23411;DHT22;11878;51.774;7.220;2022-12-18T06:32:48;-7.80;99.90
23411;DHT22;11878;51.774;7.220;2022-12-18T06:36:02;-8.00;99.90
23411;DHT22;11878;51.774;7.220;2022-12-18T06:39:55;-7.20;99.90
23411;DHT22;11878;51.774;7.220;2022-12-18T06:43:15;-7.30;99.90
23411;DHT22;11878;51.774;7.220;2022-12-18T06:46:24;-8.40;99.90
23411;DHT22;11878;51.774;7.220;2022-12-18T06:49:26;-8.20;99.90
23411;DHT22;11878;51.774;7.220;2022-12-18T06:52:32;-8.10;99.90
23411;DHT22;11878;51.774;7.220;2022-12-18T06:55:34;-8.10;99.90
23411;DHT22;11878;51.774;7.220;2022-12-18T06:58:36;-8.10;99.90
23411;DHT22;11878;51.774;7.220;2022-12-18T07:01:38;-8.20;99.90
23411;DHT22;11878;51.774;7.220;2022-12-18T07:04:40;-8.30;99.90
23411;DHT22;11878;51.774;7.220;2022-12-18T07:07:42;-8.30;99.90
23411;DHT22;11878;51.774;7.220;2022-12-18T07:10:43;-8.30;99.90
23411;DHT22;11878;51.774;7.220;2022-12-18T07:13:50;-8.40;99.90
23411;DHT22;11878;51.774;7.220;2022-12-18T07:16:54;-8.40;99.90
23411;DHT22;11878;51.774;7.220;2022-12-18T07:19:56;-8.40;99.90
23411;DHT22;11878;51.774;7.220;2022-12-18T07:22:58;-8.40;99.90
23411;DHT22;11878;51.774;7.220;2022-12-18T07:26:08;-8.40;99.90
23411;DHT22;11878;51.774;7.220;2022-12-18T07:29:10;-8.40;99.90
23411;DHT22;11878;51.774;7.220;2022-12-18T07:32:12;-8.40;99.90
23411;DHT22;11878;51.774;7.220;2022-12-18T07:35:14;-8.40;99.90
23411;DHT22;11878;51.774;7.220;2022-12-18T07:38:22;-8.20;99.90
23411;DHT22;11878;51.774;7.220;2022-12-18T07:41:24;-8.10;99.90
23411;DHT22;11878;51.774;7.220;2022-12-18T07:44:26;-7.90;99.90
23411;DHT22;11878;51.774;7.220;2022-12-18T07:47:33;-7.90;99.90
23411;DHT22;11878;51.774;7.220;2022-12-18T07:50:36;-7.80;99.90
23411;DHT22;11878;51.774;7.220;2022-12-18T07:53:38;-7.80;99.90
23411;DHT22;11878;51.774;7.220;2022-12-18T07:56:41;-7.70;99.90
23411;DHT22;11878;51.774;7.220;2022-12-18T07:59:46;-7.70;99.90
23411;DHT22;11878;51.774;7.220;2022-12-18T08:02:47;-7.70;99.90
23411;DHT22;11878;51.774;7.220;2022-12-18T08:05:49;-7.70;99.90
23411;DHT22;11878;51.774;7.220;2022-12-18T08:08:52;-7.50;99.90
23411;DHT22;11878;51.774;7.220;2022-12-18T08:11:55;-7.30;99.90
23411;DHT22;11878;51.774;7.220;2022-12-18T08:14:57;-7.40;99.90
23411;DHT22;11878;51.774;7.220;2022-12-18T08:17:58;-7.40;99.90
23411;DHT22;11878;51.774;7.220;2022-12-18T08:21:17;-7.40;99.90
23411;DHT22;11878;51.774;7.220;2022-12-18T08:24:21;-7.20;99.90
23411;DHT22;11878;51.774;7.220;2022-12-18T08:27:23;-7.10;99.90
23411;DHT22;11878;51.774;7.220;2022-12-18T08:30:30;-7.00;99.90
23411;DHT22;11878;51.774;7.220;2022-12-18T08:33:33;-7.00;99.90
23411;DHT22;11878;51.774;7.220;2022-12-18T08:36:35;-6.90;99.90
23411;DHT22;11878;51.774;7.220;2022-12-18T08:39:37;-6.90;99.90
23411;DHT22;11878;51.774;7.220;2022-12-18T08:42:39;-6.90;99.90
23411;DHT22;11878;51.774;7.220;2022-12-18T08:45:59;-6.70;99.90
23411;DHT22;11878;51.774;7.220;2022-12-18T08:49:01;-6.90;99.90
23411;DHT22;11878;51.774;7.220;2022-12-18T08:52:04;-6.80;99.90
23411;DHT22;11878;51.774;7.220;2022-12-18T08:55:07;-6.80;99.90
23411;DHT22;11878;51.774;7.220;2022-12-18T08:58:09;-6.70;99.90
23411;DHT22;11878;51.774;7.220;2022-12-18T09:01:12;-6.60;99.90
23411;DHT22;11878;51.774;7.220;2022-12-18T09:04:14;-6.50;99.90
23411;DHT22;11878;51.774;7.220;2022-12-18T09:07:16;-6.30;99.90
23411;DHT22;11878;51.774;7.220;2022-12-18T09:10:17;-6.20;99.90
23411;DHT22;11878;51.774;7.220;2022-12-18T09:13:21;-6.00;99.90
23411;DHT22;11878;51.774;7.220;2022-12-18T09:16:24;-5.90;99.90
23411;DHT22;11878;51.774;7.220;2022-12-18T09:19:32;-5.80;99.90
23411;DHT22;11878;51.774;7.220;2022-12-18T09:22:34;-5.80;99.90
23411;DHT22;11878;51.774;7.220;2022-12-18T09:25:36;-5.70;99.90
23411;DHT22;11878;51.774;7.220;2022-12-18T09:28:38;-5.50;99.90
23411;DHT22;11878;51.774;7.220;2022-12-18T09:31:40;-5.40;99.90
23411;DHT22;11878;51.774;7.220;2022-12-18T09:34:42;-5.50;99.90
23411;DHT22;11878;51.774;7.220;2022-12-18T09:37:44;-5.30;99.90
23411;DHT22;11878;51.774;7.220;2022-12-18T09:40:51;-5.20;99.90
23411;DHT22;11878;51.774;7.220;2022-12-18T09:43:58;-5.10;99.90
23411;DHT22;11878;51.774;7.220;2022-12-18T09:47:14;-5.00;99.90
23411;DHT22;11878;51.774;7.220;2022-12-18T09:50:30;-4.80;99.90
23411;DHT22;11878;51.774;7.220;2022-12-18T09:53:35;-4.10;99.90
23411;DHT22;11878;51.774;7.220;2022-12-18T09:56:41;-4.40;99.90
23411;DHT22;11878;51.774;7.220;2022-12-18T09:59:48;-4.20;99.90
23411;DHT22;11878;51.774;7.220;2022-12-18T10:02:53;-4.10;99.90
23411;DHT22;11878;51.774;7.220;2022-12-18T10:26:06;-3.00;99.90
23411;DHT22;11878;51.774;7.220;2022-12-18T10:29:12;-2.90;99.90
23411;DHT22;11878;51.774;7.220;2022-12-18T10:32:20;-2.80;99.90
23411;DHT22;11878;51.774;7.220;2022-12-18T10:35:26;-2.80;99.90
23411;DHT22;11878;51.774;7.220;2022-12-18T10:38:30;-2.80;99.90
23411;DHT22;11878;51.774;7.220;2022-12-18T10:41:33;-2.80;99.90
23411;DHT22;11878;51.774;7.220;2022-12-18T10:44:34;-2.60;99.90
23411;DHT22;11878;51.774;7.220;2022-12-18T10:47:40;-2.40;99.90
23411;DHT22;11878;51.774;7.220;2022-12-18T10:50:47;-2.30;99.90
23411;DHT22;11878;51.774;7.220;2022-12-18T10:54:19;-2.20;99.90
23411;DHT22;11878;51.774;7.220;2022-12-18T11:00:29;-2.00;99.90
23411;DHT22;11878;51.774;7.220;2022-12-18T11:07:05;-1.90;99.90
23411;DHT22;11878;51.774;7.220;2022-12-18T11:10:16;-1.80;99.90
23411;DHT22;11878;51.774;7.220;2022-12-18T11:13:22;-1.60;99.90
23411;DHT22;11878;51.774;7.220;2022-12-18T11:16:24;-1.60;99.90
23411;DHT22;11878;51.774;7.220;2022-12-18T11:22:32;-1.40;99.90
23411;DHT22;11878;51.774;7.220;2022-12-18T11:25:35;-1.30;99.90
23411;DHT22;11878;51.774;7.220;2022-12-18T11:28:44;-1.30;99.90
23411;DHT22;11878;51.774;7.220;2022-12-18T11:31:46;-1.30;99.90
23411;DHT22;11878;51.774;7.220;2022-12-18T11:34:55;-1.20;99.90
23411;DHT22;11878;51.774;7.220;2022-12-18T11:38:27;-1.10;99.90
23411;DHT22;11878;51.774;7.220;2022-12-18T11:41:52;-1.30;99.90
23411;DHT22;11878;51.774;7.220;2022-12-18T11:48:26;-1.20;99.90
23411;DHT22;11878;51.774;7.220;2022-12-18T11:51:36;-1.10;99.90
23411;DHT22;11878;51.774;7.220;2022-12-18T11:54:39;-1.20;99.90
23411;DHT22;11878;51.774;7.220;2022-12-18T11:58:07;-1.10;99.90
23411;DHT22;11878;51.774;7.220;2022-12-18T12:01:43;-1.00;99.90
23411;DHT22;11878;51.774;7.220;2022-12-18T12:12:10;-0.80;99.90
23411;DHT22;11878;51.774;7.220;2022-12-18T12:19:01;-0.70;99.90
23411;DHT22;11878;51.774;7.220;2022-12-18T12:22:52;-0.80;99.90
23411;DHT22;11878;51.774;7.220;2022-12-18T12:26:12;-0.70;99.90
23411;DHT22;11878;51.774;7.220;2022-12-18T12:39:05;-0.70;99.90
23411;DHT22;11878;51.774;7.220;2022-12-18T12:42:23;-0.70;99.90
23411;DHT22;11878;51.774;7.220;2022-12-18T12:45:56;-0.70;99.90
23411;DHT22;11878;51.774;7.220;2022-12-18T12:49:13;-0.80;99.90
23411;DHT22;11878;51.774;7.220;2022-12-18T12:52:32;-0.70;99.90
23411;DHT22;11878;51.774;7.220;2022-12-18T12:55:35;-0.70;99.90
23411;DHT22;11878;51.774;7.220;2022-12-18T13:02:23;-0.70;99.90
23411;DHT22;11878;51.774;7.220;2022-12-18T13:05:40;-0.70;99.90
23411;DHT22;11878;51.774;7.220;2022-12-18T13:08:54;-0.70;99.90
23411;DHT22;11878;51.774;7.220;2022-12-18T13:12:02;-0.80;99.90
23411;DHT22;11878;51.774;7.220;2022-12-18T13:15:43;-0.80;99.90
23411;DHT22;11878;51.774;7.220;2022-12-18T13:18:57;-0.90;99.90
23411;DHT22;11878;51.774;7.220;2022-12-18T13:22:00;-0.80;99.90
23411;DHT22;11878;51.774;7.220;2022-12-18T13:25:03;-0.70;99.90
23411;DHT22;11878;51.774;7.220;2022-12-18T13:28:20;-0.70;99.90
23411;DHT22;11878;51.774;7.220;2022-12-18T13:34:43;-0.80;99.90
23411;DHT22;11878;51.774;7.220;2022-12-18T13:37:52;-0.70;99.90
23411;DHT22;11878;51.774;7.220;2022-12-18T13:40:56;-0.70;99.90
23411;DHT22;11878;51.774;7.220;2022-12-18T13:44:30;-0.70;99.90
23411;DHT22;11878;51.774;7.220;2022-12-18T13:47:39;-0.70;99.90
23411;DHT22;11878;51.774;7.220;2022-12-18T13:50:40;-0.70;99.90
23411;DHT22;11878;51.774;7.220;2022-12-18T13:53:46;-0.70;99.90
23411;DHT22;11878;51.774;7.220;2022-12-18T13:56:49;-0.70;99.90
23411;DHT22;11878;51.774;7.220;2022-12-18T13:59:51;-0.80;99.90
23411;DHT22;11878;51.774;7.220;2022-12-18T14:02:53;-0.90;99.90
23411;DHT22;11878;51.774;7.220;2022-12-18T14:06:01;-0.80;99.90
23411;DHT22;11878;51.774;7.220;2022-12-18T14:09:04;-0.90;99.90
23411;DHT22;11878;51.774;7.220;2022-12-18T14:12:16;-0.80;99.90
23411;DHT22;11878;51.774;7.220;2022-12-18T14:15:43;-0.90;99.90
23411;DHT22;11878;51.774;7.220;2022-12-18T14:18:53;-0.90;99.90
23411;DHT22;11878;51.774;7.220;2022-12-18T14:22:03;-1.00;99.90
23411;DHT22;11878;51.774;7.220;2022-12-18T14:25:21;-0.90;99.90
23411;DHT22;11878;51.774;7.220;2022-12-18T14:28:23;-0.90;99.90
23411;DHT22;11878;51.774;7.220;2022-12-18T14:31:27;-1.00;99.90
23411;DHT22;11878;51.774;7.220;2022-12-18T14:34:29;-1.00;99.90
23411;DHT22;11878;51.774;7.220;2022-12-18T14:37:31;-0.90;99.90
23411;DHT22;11878;51.774;7.220;2022-12-18T14:40:32;-1.00;99.90
23411;DHT22;11878;51.774;7.220;2022-12-18T14:43:36;-0.80;99.90
23411;DHT22;11878;51.774;7.220;2022-12-18T14:46:41;-0.80;99.90
23411;DHT22;11878;51.774;7.220;2022-12-18T14:49:44;-0.80;99.90
23411;DHT22;11878;51.774;7.220;2022-12-18T14:52:46;-0.80;99.90
23411;DHT22;11878;51.774;7.220;2022-12-18T14:55:48;-0.70;99.90
23411;DHT22;11878;51.774;7.220;2022-12-18T14:58:56;-0.80;99.90
23411;DHT22;11878;51.774;7.220;2022-12-18T15:02:10;-0.70;99.90
23411;DHT22;11878;51.774;7.220;2022-12-18T15:05:21;-0.70;99.90
23411;DHT22;11878;51.774;7.220;2022-12-18T15:08:30;-0.70;99.90
23411;DHT22;11878;51.774;7.220;2022-12-18T15:14:43;-0.70;99.90
23411;DHT22;11878;51.774;7.220;2022-12-18T15:17:44;-0.70;99.90
23411;DHT22;11878;51.774;7.220;2022-12-18T15:20:57;-0.70;99.90
23411;DHT22;11878;51.774;7.220;2022-12-18T15:24:00;-0.70;99.90
23411;DHT22;11878;51.774;7.220;2022-12-18T15:27:02;-0.70;99.90
23411;DHT22;11878;51.774;7.220;2022-12-18T15:33:41;-0.70;99.90
23411;DHT22;11878;51.774;7.220;2022-12-18T15:36:44;-0.70;99.90
23411;DHT22;11878;51.774;7.220;2022-12-18T15:39:46;-0.80;99.90
23411;DHT22;11878;51.774;7.220;2022-12-18T15:42:48;-0.80;99.90
23411;DHT22;11878;51.774;7.220;2022-12-18T15:46:13;-0.70;99.90
23411;DHT22;11878;51.774;7.220;2022-12-18T15:49:15;-0.80;99.90
23411;DHT22;11878;51.774;7.220;2022-12-18T15:52:16;-0.70;99.90
23411;DHT22;11878;51.774;7.220;2022-12-18T15:55:27;-0.70;99.90
23411;DHT22;11878;51.774;7.220;2022-12-18T15:58:47;-0.70;99.90
23411;DHT22;11878;51.774;7.220;2022-12-18T16:01:51;-0.80;99.90
23411;DHT22;11878;51.774;7.220;2022-12-18T16:04:54;-0.80;99.90
23411;DHT22;11878;51.774;7.220;2022-12-18T16:07:56;-0.70;99.90
23411;DHT22;11878;51.774;7.220;2022-12-18T16:10:59;-0.70;99.90
23411;DHT22;11878;51.774;7.220;2022-12-18T16:14:01;-0.70;99.90
23411;DHT22;11878;51.774;7.220;2022-12-18T16:17:08;-0.70;99.90
23411;DHT22;11878;51.774;7.220;2022-12-18T16:20:19;-0.70;99.90
23411;DHT22;11878;51.774;7.220;2022-12-18T16:23:22;-0.70;99.90
23411;DHT22;11878;51.774;7.220;2022-12-18T16:26:23;-0.70;99.90
23411;DHT22;11878;51.774;7.220;2022-12-18T16:29:26;-0.70;99.90
23411;DHT22;11878;51.774;7.220;2022-12-18T16:32:29;-0.70;99.90
23411;DHT22;11878;51.774;7.220;2022-12-18T16:35:31;-0.70;99.90
23411;DHT22;11878;51.774;7.220;2022-12-18T16:38:33;-0.70;99.90
23411;DHT22;11878;51.774;7.220;2022-12-18T16:41:35;-0.70;99.90
23411;DHT22;11878;51.774;7.220;2022-12-18T16:44:38;-0.70;99.90
23411;DHT22;11878;51.774;7.220;2022-12-18T16:47:40;-0.70;99.90
23411;DHT22;11878;51.774;7.220;2022-12-18T16:50:41;-0.70;99.90
23411;DHT22;11878;51.774;7.220;2022-12-18T16:53:43;-0.70;99.90
23411;DHT22;11878;51.774;7.220;2022-12-18T16:56:46;-0.70;99.90
23411;DHT22;11878;51.774;7.220;2022-12-18T16:59:50;-0.70;99.90
23411;DHT22;11878;51.774;7.220;2022-12-18T17:02:52;-0.70;99.90
23411;DHT22;11878;51.774;7.220;2022-12-18T17:06:00;-0.80;99.90
23411;DHT22;11878;51.774;7.220;2022-12-18T17:09:06;-1.00;99.90
23411;DHT22;11878;51.774;7.220;2022-12-18T17:12:09;-1.00;99.90
23411;DHT22;11878;51.774;7.220;2022-12-18T17:15:10;-1.00;99.90
23411;DHT22;11878;51.774;7.220;2022-12-18T17:18:12;-0.90;99.90
23411;DHT22;11878;51.774;7.220;2022-12-18T17:21:16;-0.90;99.90
23411;DHT22;11878;51.774;7.220;2022-12-18T17:24:18;-0.90;99.90
23411;DHT22;11878;51.774;7.220;2022-12-18T17:27:20;-0.80;99.90
23411;DHT22;11878;51.774;7.220;2022-12-18T17:30:22;-0.70;99.90
23411;DHT22;11878;51.774;7.220;2022-12-18T17:33:24;-0.60;99.90
23411;DHT22;11878;51.774;7.220;2022-12-18T17:36:26;-0.50;99.90
23411;DHT22;11878;51.774;7.220;2022-12-18T17:39:29;-0.50;99.90
23411;DHT22;11878;51.774;7.220;2022-12-18T17:42:31;-0.40;99.90
23411;DHT22;11878;51.774;7.220;2022-12-18T17:45:38;-0.40;99.90
23411;DHT22;11878;51.774;7.220;2022-12-18T17:48:40;-0.30;99.90
23411;DHT22;11878;51.774;7.220;2022-12-18T17:51:41;-0.20;99.90
23411;DHT22;11878;51.774;7.220;2022-12-18T17:54:43;-0.20;99.90
23411;DHT22;11878;51.774;7.220;2022-12-18T17:57:45;-0.20;99.90
23411;DHT22;11878;51.774;7.220;2022-12-18T18:00:48;-0.10;99.90
23411;DHT22;11878;51.774;7.220;2022-12-18T18:03:50;-0.10;99.90
23411;DHT22;11878;51.774;7.220;2022-12-18T18:06:54;0.00;99.90
23411;DHT22;11878;51.774;7.220;2022-12-18T18:09:56;0.00;99.90
23411;DHT22;11878;51.774;7.220;2022-12-18T18:12:57;0.00;99.90
23411;DHT22;11878;51.774;7.220;2022-12-18T18:16:46;0.20;99.90
23411;DHT22;11878;51.774;7.220;2022-12-18T18:19:48;0.20;99.90
23411;DHT22;11878;51.774;7.220;2022-12-18T18:22:50;0.10;99.90
23411;DHT22;11878;51.774;7.220;2022-12-18T18:25:52;0.10;99.90
23411;DHT22;11878;51.774;7.220;2022-12-18T18:28:54;0.30;99.90
23411;DHT22;11878;51.774;7.220;2022-12-18T18:31:57;0.30;99.90
23411;DHT22;11878;51.774;7.220;2022-12-18T18:34:59;0.30;99.90
23411;DHT22;11878;51.774;7.220;2022-12-18T18:38:01;0.30;99.90
23411;DHT22;11878;51.774;7.220;2022-12-18T18:41:05;0.30;99.90
23411;DHT22;11878;51.774;7.220;2022-12-18T18:44:08;0.30;99.90
23411;DHT22;11878;51.774;7.220;2022-12-18T18:47:10;0.40;99.90
23411;DHT22;11878;51.774;7.220;2022-12-18T18:50:12;0.40;99.90
23411;DHT22;11878;51.774;7.220;2022-12-18T18:53:14;0.40;99.90
23411;DHT22;11878;51.774;7.220;2022-12-18T18:56:18;0.40;99.90
23411;DHT22;11878;51.774;7.220;2022-12-18T18:59:41;0.40;99.90
23411;DHT22;11878;51.774;7.220;2022-12-18T19:02:42;0.40;99.90
23411;DHT22;11878;51.774;7.220;2022-12-18T19:05:56;0.40;99.90
23411;DHT22;11878;51.774;7.220;2022-12-18T19:09:02;0.40;99.90
23411;DHT22;11878;51.774;7.220;2022-12-18T19:12:05;0.50;99.90
23411;DHT22;11878;51.774;7.220;2022-12-18T19:15:25;0.50;99.90
23411;DHT22;11878;51.774;7.220;2022-12-18T19:18:27;0.60;99.90
23411;DHT22;11878;51.774;7.220;2022-12-18T19:21:29;0.50;99.90
23411;DHT22;11878;51.774;7.220;2022-12-18T19:24:35;0.60;99.90
23411;DHT22;11878;51.774;7.220;2022-12-18T19:27:37;0.60;99.90
23411;DHT22;11878;51.774;7.220;2022-12-18T19:30:40;0.60;99.90
23411;DHT22;11878;51.774;7.220;2022-12-18T19:33:44;0.50;99.90
23411;DHT22;11878;51.774;7.220;2022-12-18T19:36:46;0.60;99.90
23411;DHT22;11878;51.774;7.220;2022-12-18T19:39:48;0.70;99.90
23411;DHT22;11878;51.774;7.220;2022-12-18T19:42:49;0.80;99.90
23411;DHT22;11878;51.774;7.220;2022-12-18T19:45:54;0.80;99.90
23411;DHT22;11878;51.774;7.220;2022-12-18T19:48:58;0.80;99.90
23411;DHT22;11878;51.774;7.220;2022-12-18T19:52:01;0.80;99.90
23411;DHT22;11878;51.774;7.220;2022-12-18T19:55:03;0.90;99.90
23411;DHT22;11878;51.774;7.220;2022-12-18T19:58:05;0.90;99.90
23411;DHT22;11878;51.774;7.220;2022-12-18T20:01:06;1.00;99.90
23411;DHT22;11878;51.774;7.220;2022-12-18T20:04:10;1.00;99.90
23411;DHT22;11878;51.774;7.220;2022-12-18T20:07:12;0.90;99.90
23411;DHT22;11878;51.774;7.220;2022-12-18T20:10:13;0.90;99.90
23411;DHT22;11878;51.774;7.220;2022-12-18T20:13:17;0.90;99.90
23411;DHT22;11878;51.774;7.220;2022-12-18T20:16:19;1.00;99.90
23411;DHT22;11878;51.774;7.220;2022-12-18T20:19:21;0.90;99.90
23411;DHT22;11878;51.774;7.220;2022-12-18T20:22:23;1.00;99.90
23411;DHT22;11878;51.774;7.220;2022-12-18T20:25:24;0.90;99.90
23411;DHT22;11878;51.774;7.220;2022-12-18T20:28:27;1.00;99.90
23411;DHT22;11878;51.774;7.220;2022-12-18T20:31:28;1.10;99.90
23411;DHT22;11878;51.774;7.220;2022-12-18T20:34:30;1.10;99.90
23411;DHT22;11878;51.774;7.220;2022-12-18T20:37:32;1.10;99.90
23411;DHT22;11878;51.774;7.220;2022-12-18T20:40:34;1.10;99.90
23411;DHT22;11878;51.774;7.220;2022-12-18T20:43:39;1.10;99.90
23411;DHT22;11878;51.774;7.220;2022-12-18T20:46:41;1.20;99.90
23411;DHT22;11878;51.774;7.220;2022-12-18T20:49:43;1.20;99.90
23411;DHT22;11878;51.774;7.220;2022-12-18T20:52:47;1.20;99.90
23411;DHT22;11878;51.774;7.220;2022-12-18T20:55:48;1.20;99.90
23411;DHT22;11878;51.774;7.220;2022-12-18T20:58:50;1.20;99.90
23411;DHT22;11878;51.774;7.220;2022-12-18T21:01:55;1.20;99.90
23411;DHT22;11878;51.774;7.220;2022-12-18T21:04:57;1.20;99.90
23411;DHT22;11878;51.774;7.220;2022-12-18T21:07:59;1.20;99.90